sensor_id;sensor_type;location;lat;lon;timestamp;pressure;altitude;pressure_sealevel;temperature;humidity
46946;BME280;32679;40.810;14.498;2023-03-22T00:02:13;100172.31;;;10.03;85.74
46946;BME280;32679;40.810;14.498;2023-03-22T00:04:47;100178.31;;;10.05;85.93
46946;BME280;32679;40.810;14.498;2023-03-22T00:07:16;100174.81;;;10.08;85.47
46946;BME280;32679;40.810;14.498;2023-03-22T00:09:49;100169.88;;;10.01;85.99
46946;BME280;32679;40.810;14.498;2023-03-22T00:12:17;100167.84;;;9.98;86.20
46946;BME280;32679;40.810;14.498;2023-03-22T00:14:46;100167.66;;;9.91;85.91
46946;BME280;32679;40.810;14.498;2023-03-22T00:17:15;100167.72;;;9.94;86.50
46946;BME280;32679;40.810;14.498;2023-03-22T00:19:43;100168.72;;;9.86;86.43
46946;BME280;32679;40.810;14.498;2023-03-22T00:22:13;100174.84;;;9.92;86.64
46946;BME280;32679;40.810;14.498;2023-03-22T00:24:40;100170.34;;;10.03;85.14
46946;BME280;32679;40.810;14.498;2023-03-22T00:27:08;100180.03;;;9.93;84.18
46946;BME280;32679;40.810;14.498;2023-03-22T00:29:39;100171.69;;;9.78;84.83
46946;BME280;32679;40.810;14.498;2023-03-22T00:32:07;100167.66;;;9.59;85.52
46946;BME280;32679;40.810;14.498;2023-03-22T00:34:38;100159.63;;;9.42;87.79
46946;BME280;32679;40.810;14.498;2023-03-22T00:37:04;100152.34;;;9.37;88.99
46946;BME280;32679;40.810;14.498;2023-03-22T00:39:32;100147.97;;;9.36;89.99
46946;BME280;32679;40.810;14.498;2023-03-22T00:42:00;100155.59;;;9.39;91.01
46946;BME280;32679;40.810;14.498;2023-03-22T00:44:26;100154.88;;;9.42;90.33
46946;BME280;32679;40.810;14.498;2023-03-22T00:46:53;100141.56;;;9.48;90.31
46946;BME280;32679;40.810;14.498;2023-03-22T00:49:24;100148.97;;;9.44;90.35
46946;BME280;32679;40.810;14.498;2023-03-22T00:51:53;100142.97;;;9.42;91.56
46946;BME280;32679;40.810;14.498;2023-03-22T00:54:24;100141.34;;;9.41;91.81
46946;BME280;32679;40.810;14.498;2023-03-22T00:56:52;100134.28;;;9.43;91.36
46946;BME280;32679;40.810;14.498;2023-03-22T00:59:17;100138.50;;;9.53;91.19
46946;BME280;32679;40.810;14.498;2023-03-22T01:01:45;100131.25;;;9.49;90.86
46946;BME280;32679;40.810;14.498;2023-03-22T01:04:11;100128.53;;;9.36;91.43
46946;BME280;32679;40.810;14.498;2023-03-22T01:06:52;100128.00;;;9.47;92.44
46946;BME280;32679;40.810;14.498;2023-03-22T01:09:26;100127.81;;;9.39;92.50
46946;BME280;32679;40.810;14.498;2023-03-22T01:11:58;100124.25;;;9.39;92.86
46946;BME280;32679;40.810;14.498;2023-03-22T01:14:27;100123.63;;;9.45;92.80
46946;BME280;32679;40.810;14.498;2023-03-22T01:16:56;100123.63;;;9.45;92.85
46946;BME280;32679;40.810;14.498;2023-03-22T01:19:25;100120.16;;;9.49;92.51
46946;BME280;32679;40.810;14.498;2023-03-22T01:21:53;100112.78;;;9.56;92.63
46946;BME280;32679;40.810;14.498;2023-03-22T01:24:22;100107.41;;;9.48;92.00
46946;BME280;32679;40.810;14.498;2023-03-22T01:26:48;100101.22;;;9.38;92.95
46946;BME280;32679;40.810;14.498;2023-03-22T01:29:14;100100.75;;;9.36;92.14
46946;BME280;32679;40.810;14.498;2023-03-22T01:31:42;100100.16;;;9.43;91.78
46946;BME280;32679;40.810;14.498;2023-03-22T01:34:12;100101.84;;;9.48;91.97
46946;BME280;32679;40.810;14.498;2023-03-22T01:36:40;100103.28;;;9.41;92.16
46946;BME280;32679;40.810;14.498;2023-03-22T01:39:10;100102.28;;;9.34;92.76
46946;BME280;32679;40.810;14.498;2023-03-22T01:41:38;100109.81;;;9.33;93.76
46946;BME280;32679;40.810;14.498;2023-03-22T01:44:18;100107.03;;;9.33;93.71
46946;BME280;32679;40.810;14.498;2023-03-22T01:46:46;100100.06;;;9.39;93.88
46946;BME280;32679;40.810;14.498;2023-03-22T01:49:22;100092.97;;;9.42;93.74
46946;BME280;32679;40.810;14.498;2023-03-22T01:51:52;100092.16;;;9.41;94.33
46946;BME280;32679;40.810;14.498;2023-03-22T01:54:29;100087.59;;;9.33;95.08
46946;BME280;32679;40.810;14.498;2023-03-22T01:56:59;100085.91;;;9.29;95.52
46946;BME280;32679;40.810;14.498;2023-03-22T01:59:26;100094.78;;;9.34;95.26
46946;BME280;32679;40.810;14.498;2023-03-22T02:01:52;100098.16;;;9.28;94.90
46946;BME280;32679;40.810;14.498;2023-03-22T02:04:19;100099.41;;;9.30;94.92
46946;BME280;32679;40.810;14.498;2023-03-22T02:06:51;100096.56;;;9.42;93.78
46946;BME280;32679;40.810;14.498;2023-03-22T02:09:22;100093.69;;;9.39;93.98
46946;BME280;32679;40.810;14.498;2023-03-22T02:23:45;100091.88;;;9.31;95.06
46946;BME280;32679;40.810;14.498;2023-03-22T02:28:52;100087.91;;;9.16;97.78
46946;BME280;32679;40.810;14.498;2023-03-22T02:31:47;100082.03;;;9.17;98.33
46946;BME280;32679;40.810;14.498;2023-03-22T02:42:58;100075.28;;;9.03;97.53
46946;BME280;32679;40.810;14.498;2023-03-22T02:47:57;100086.38;;;9.03;97.36
46946;BME280;32679;40.810;14.498;2023-03-22T02:50:53;100087.09;;;9.00;97.34
46946;BME280;32679;40.810;14.498;2023-03-22T02:55:53;100101.22;;;8.95;97.83
46946;BME280;32679;40.810;14.498;2023-03-22T02:58:24;100101.13;;;8.91;98.86
46946;BME280;32679;40.810;14.498;2023-03-22T03:00:56;100103.34;;;8.85;99.84
46946;BME280;32679;40.810;14.498;2023-03-22T03:03:27;100104.16;;;8.86;100.00
46946;BME280;32679;40.810;14.498;2023-03-22T03:05:58;100110.50;;;8.86;100.00
46946;BME280;32679;40.810;14.498;2023-03-22T03:08:26;100108.53;;;8.87;100.00
46946;BME280;32679;40.810;14.498;2023-03-22T03:10:53;100110.69;;;8.93;100.00
46946;BME280;32679;40.810;14.498;2023-03-22T03:13:21;100111.81;;;9.05;99.90
46946;BME280;32679;40.810;14.498;2023-03-22T03:15:54;100111.50;;;8.94;100.00
46946;BME280;32679;40.810;14.498;2023-03-22T03:18:42;100080.31;;;8.69;100.00
46946;BME280;32679;40.810;14.498;2023-03-22T03:21:30;100105.56;;;8.80;100.00
46946;BME280;32679;40.810;14.498;2023-03-22T03:24:23;100110.94;;;8.88;100.00
46946;BME280;32679;40.810;14.498;2023-03-22T03:35:03;100112.13;;;8.87;98.90
46946;BME280;32679;40.810;14.498;2023-03-22T03:37:39;100117.47;;;8.80;99.35
46946;BME280;32679;40.810;14.498;2023-03-22T03:40:10;100115.94;;;8.83;99.45
46946;BME280;32679;40.810;14.498;2023-03-22T03:42:45;100119.38;;;8.92;98.40
46946;BME280;32679;40.810;14.498;2023-03-22T03:45:18;100125.84;;;8.96;98.51
46946;BME280;32679;40.810;14.498;2023-03-22T03:47:48;100128.38;;;9.01;98.15
46946;BME280;32679;40.810;14.498;2023-03-22T03:50:24;100136.03;;;8.92;98.12
46946;BME280;32679;40.810;14.498;2023-03-22T03:52:51;100134.13;;;8.80;98.56
46946;BME280;32679;40.810;14.498;2023-03-22T03:55:23;100138.94;;;8.83;99.29
46946;BME280;32679;40.810;14.498;2023-03-22T03:57:52;100137.59;;;8.77;99.08
46946;BME280;32679;40.810;14.498;2023-03-22T04:00:20;100138.75;;;8.76;100.00
46946;BME280;32679;40.810;14.498;2023-03-22T04:02:52;100136.59;;;8.70;100.00
46946;BME280;32679;40.810;14.498;2023-03-22T04:05:20;100146.50;;;8.71;100.00
46946;BME280;32679;40.810;14.498;2023-03-22T04:07:50;100145.00;;;8.73;100.00
46946;BME280;32679;40.810;14.498;2023-03-22T04:10:18;100140.59;;;8.72;99.51
46946;BME280;32679;40.810;14.498;2023-03-22T04:12:46;100146.31;;;8.63;98.71
46946;BME280;32679;40.810;14.498;2023-03-22T04:15:15;100143.97;;;8.65;99.64
46946;BME280;32679;40.810;14.498;2023-03-22T04:17:43;100150.75;;;8.80;98.23
46946;BME280;32679;40.810;14.498;2023-03-22T04:20:12;100149.84;;;8.76;96.84
46946;BME280;32679;40.810;14.498;2023-03-22T04:22:39;100139.91;;;8.75;97.13
46946;BME280;32679;40.810;14.498;2023-03-22T04:25:13;100139.00;;;8.71;97.23
46946;BME280;32679;40.810;14.498;2023-03-22T04:27:45;100132.09;;;8.65;98.26
46946;BME280;32679;40.810;14.498;2023-03-22T04:30:17;100136.72;;;8.61;98.58
46946;BME280;32679;40.810;14.498;2023-03-22T04:32:48;100134.19;;;8.56;98.41
46946;BME280;32679;40.810;14.498;2023-03-22T04:35:14;100136.72;;;8.61;98.16
46946;BME280;32679;40.810;14.498;2023-03-22T04:37:40;100136.59;;;8.57;97.68
46946;BME280;32679;40.810;14.498;2023-03-22T04:40:10;100139.47;;;8.61;96.67
46946;BME280;32679;40.810;14.498;2023-03-22T04:42:41;100147.31;;;8.71;95.47
46946;BME280;32679;40.810;14.498;2023-03-22T04:45:15;100145.09;;;8.77;93.63
46946;BME280;32679;40.810;14.498;2023-03-22T04:47:43;100146.63;;;8.74;94.42
46946;BME280;32679;40.810;14.498;2023-03-22T04:50:09;100149.53;;;8.65;95.60
46946;BME280;32679;40.810;14.498;2023-03-22T04:52:38;100151.38;;;8.61;96.33
46946;BME280;32679;40.810;14.498;2023-03-22T04:55:11;100148.28;;;8.63;96.89
46946;BME280;32679;40.810;14.498;2023-03-22T04:57:39;100152.41;;;8.69;95.86
46946;BME280;32679;40.810;14.498;2023-03-22T05:00:05;100165.47;;;8.69;95.80
46946;BME280;32679;40.810;14.498;2023-03-22T05:02:35;100155.06;;;8.65;95.46
46946;BME280;32679;40.810;14.498;2023-03-22T05:05:05;100163.59;;;8.73;95.48
46946;BME280;32679;40.810;14.498;2023-03-22T05:07:33;100157.91;;;8.81;94.80
46946;BME280;32679;40.810;14.498;2023-03-22T05:09:58;100163.72;;;8.76;94.75
46946;BME280;32679;40.810;14.498;2023-03-22T05:12:32;100159.34;;;8.75;95.54
46946;BME280;32679;40.810;14.498;2023-03-22T05:15:00;100157.81;;;8.78;96.20
46946;BME280;32679;40.810;14.498;2023-03-22T05:17:28;100154.34;;;8.81;94.70
46946;BME280;32679;40.810;14.498;2023-03-22T05:19:59;100150.06;;;9.11;92.86
46946;BME280;32679;40.810;14.498;2023-03-22T05:22:32;100149.56;;;9.22;91.36
46946;BME280;32679;40.810;14.498;2023-03-22T05:25:03;100156.25;;;9.49;89.70
46946;BME280;32679;40.810;14.498;2023-03-22T05:27:31;100152.75;;;9.83;88.75
46946;BME280;32679;40.810;14.498;2023-03-22T05:30:01;100161.09;;;10.31;87.98
46946;BME280;32679;40.810;14.498;2023-03-22T05:32:29;100170.56;;;10.61;85.62
46946;BME280;32679;40.810;14.498;2023-03-22T05:35:00;100169.00;;;10.64;84.31
46946;BME280;32679;40.810;14.498;2023-03-22T05:37:34;100167.00;;;11.19;82.26
46946;BME280;32679;40.810;14.498;2023-03-22T05:40:03;100173.22;;;11.97;78.19
46946;BME280;32679;40.810;14.498;2023-03-22T05:42:29;100167.69;;;12.50;74.88
46946;BME280;32679;40.810;14.498;2023-03-22T05:44:57;100163.28;;;13.05;70.96
46946;BME280;32679;40.810;14.498;2023-03-22T05:47:31;100168.72;;;13.58;68.54
46946;BME280;32679;40.810;14.498;2023-03-22T05:49:56;100160.22;;;13.92;64.99
46946;BME280;32679;40.810;14.498;2023-03-22T05:52:24;100164.63;;;13.93;64.30
46946;BME280;32679;40.810;14.498;2023-03-22T05:54:50;100170.59;;;14.43;61.66
46946;BME280;32679;40.810;14.498;2023-03-22T05:57:18;100162.06;;;14.77;62.00
46946;BME280;32679;40.810;14.498;2023-03-22T05:59:46;100160.56;;;15.01;60.40
46946;BME280;32679;40.810;14.498;2023-03-22T06:02:19;100165.50;;;15.29;58.93
46946;BME280;32679;40.810;14.498;2023-03-22T06:04:49;100180.78;;;15.60;57.93
46946;BME280;32679;40.810;14.498;2023-03-22T06:07:19;100175.28;;;15.78;58.07
46946;BME280;32679;40.810;14.498;2023-03-22T06:09:48;100173.69;;;16.12;57.21
46946;BME280;32679;40.810;14.498;2023-03-22T06:12:21;100176.47;;;16.52;55.79
46946;BME280;32679;40.810;14.498;2023-03-22T06:14:50;100175.25;;;16.74;54.01
46946;BME280;32679;40.810;14.498;2023-03-22T06:17:21;100182.06;;;16.80;52.37
46946;BME280;32679;40.810;14.498;2023-03-22T06:19:50;100180.03;;;16.88;54.33
46946;BME280;32679;40.810;14.498;2023-03-22T06:22:18;100188.03;;;16.93;54.20
46946;BME280;32679;40.810;14.498;2023-03-22T06:24:44;100181.22;;;17.01;53.49
46946;BME280;32679;40.810;14.498;2023-03-22T06:27:26;100183.34;;;17.56;52.64
46946;BME280;32679;40.810;14.498;2023-03-22T06:29:55;100180.06;;;17.75;50.54
46946;BME280;32679;40.810;14.498;2023-03-22T06:32:26;100193.06;;;18.14;49.26
46946;BME280;32679;40.810;14.498;2023-03-22T06:34:56;100182.66;;;18.52;48.69
46946;BME280;32679;40.810;14.498;2023-03-22T06:37:27;100188.41;;;18.87;47.75
46946;BME280;32679;40.810;14.498;2023-03-22T06:39:53;100190.78;;;18.88;47.01
46946;BME280;32679;40.810;14.498;2023-03-22T06:42:20;100200.03;;;19.23;44.91
46946;BME280;32679;40.810;14.498;2023-03-22T06:44:49;100193.78;;;19.73;44.20
46946;BME280;32679;40.810;14.498;2023-03-22T06:47:18;100202.22;;;20.03;43.33
46946;BME280;32679;40.810;14.498;2023-03-22T06:49:49;100206.91;;;20.37;42.96
46946;BME280;32679;40.810;14.498;2023-03-22T06:52:17;100185.44;;;20.39;41.35
46946;BME280;32679;40.810;14.498;2023-03-22T06:54:45;100213.03;;;20.59;40.82
46946;BME280;32679;40.810;14.498;2023-03-22T06:57:16;100202.78;;;20.88;39.89
46946;BME280;32679;40.810;14.498;2023-03-22T06:59:44;100202.25;;;21.37;38.84
46946;BME280;32679;40.810;14.498;2023-03-22T07:02:13;100202.53;;;21.42;39.13
46946;BME280;32679;40.810;14.498;2023-03-22T07:04:38;100208.63;;;21.61;38.57
46946;BME280;32679;40.810;14.498;2023-03-22T07:07:06;100206.03;;;21.86;38.38
46946;BME280;32679;40.810;14.498;2023-03-22T07:09:37;100208.91;;;22.19;37.56
46946;BME280;32679;40.810;14.498;2023-03-22T07:12:05;100207.16;;;22.41;37.19
46946;BME280;32679;40.810;14.498;2023-03-22T07:14:37;100201.72;;;22.63;36.13
46946;BME280;32679;40.810;14.498;2023-03-22T07:17:08;100201.59;;;22.21;35.79
46946;BME280;32679;40.810;14.498;2023-03-22T07:19:34;100211.69;;;22.84;35.63
46946;BME280;32679;40.810;14.498;2023-03-22T07:22:07;100217.03;;;22.98;33.44
46946;BME280;32679;40.810;14.498;2023-03-22T07:24:32;100219.53;;;22.80;34.70
46946;BME280;32679;40.810;14.498;2023-03-22T07:27:04;100210.66;;;22.94;34.63
46946;BME280;32679;40.810;14.498;2023-03-22T07:29:32;100224.06;;;23.65;34.17
46946;BME280;32679;40.810;14.498;2023-03-22T07:31:58;100228.88;;;23.10;34.81
46946;BME280;32679;40.810;14.498;2023-03-22T07:34:24;100227.88;;;23.45;33.75
46946;BME280;32679;40.810;14.498;2023-03-22T07:36:52;100231.13;;;23.73;33.70
46946;BME280;32679;40.810;14.498;2023-03-22T07:39:21;100225.59;;;23.40;34.32
46946;BME280;32679;40.810;14.498;2023-03-22T07:41:52;100220.59;;;23.44;34.67
46946;BME280;32679;40.810;14.498;2023-03-22T07:44:20;100224.56;;;23.76;34.71
46946;BME280;32679;40.810;14.498;2023-03-22T07:46:46;100226.81;;;22.65;35.10
46946;BME280;32679;40.810;14.498;2023-03-22T07:49:15;100228.16;;;23.06;33.94
46946;BME280;32679;40.810;14.498;2023-03-22T07:51:40;100223.69;;;22.92;34.91
46946;BME280;32679;40.810;14.498;2023-03-22T07:54:12;100233.56;;;23.58;33.28
46946;BME280;32679;40.810;14.498;2023-03-22T07:56:40;100229.97;;;23.29;33.52
46946;BME280;32679;40.810;14.498;2023-03-22T07:59:06;100229.94;;;23.58;34.02
46946;BME280;32679;40.810;14.498;2023-03-22T08:01:35;100233.22;;;23.98;33.00
46946;BME280;32679;40.810;14.498;2023-03-22T08:04:01;100233.44;;;24.29;31.63
46946;BME280;32679;40.810;14.498;2023-03-22T08:06:26;100246.50;;;24.14;32.67
46946;BME280;32679;40.810;14.498;2023-03-22T08:08:52;100232.50;;;24.07;31.99
46946;BME280;32679;40.810;14.498;2023-03-22T08:11:20;100233.31;;;23.82;32.69
46946;BME280;32679;40.810;14.498;2023-03-22T08:13:49;100234.91;;;23.53;32.49
46946;BME280;32679;40.810;14.498;2023-03-22T08:16:20;100232.50;;;22.48;33.34
46946;BME280;32679;40.810;14.498;2023-03-22T08:18:48;100244.28;;;21.94;34.92
46946;BME280;32679;40.810;14.498;2023-03-22T08:21:16;100240.25;;;22.77;34.11
46946;BME280;32679;40.810;14.498;2023-03-22T08:23:42;100232.97;;;21.94;34.79
46946;BME280;32679;40.810;14.498;2023-03-22T08:26:12;100238.16;;;22.48;34.40
46946;BME280;32679;40.810;14.498;2023-03-22T08:28:38;100235.34;;;23.10;33.59
46946;BME280;32679;40.810;14.498;2023-03-22T08:31:12;100243.41;;;23.41;33.09
46946;BME280;32679;40.810;14.498;2023-03-22T08:33:40;100237.59;;;23.03;32.61
46946;BME280;32679;40.810;14.498;2023-03-22T08:36:15;100239.09;;;23.78;32.04
46946;BME280;32679;40.810;14.498;2023-03-22T08:38:45;100231.94;;;24.50;31.17
46946;BME280;32679;40.810;14.498;2023-03-22T08:41:11;100245.50;;;24.93;30.42
46946;BME280;32679;40.810;14.498;2023-03-22T08:43:37;100236.97;;;24.46;31.27
46946;BME280;32679;40.810;14.498;2023-03-22T08:46:08;100232.06;;;24.94;29.97
46946;BME280;32679;40.810;14.498;2023-03-22T08:48:34;100233.91;;;24.88;30.82
46946;BME280;32679;40.810;14.498;2023-03-22T08:51:05;100223.38;;;25.76;29.76
46946;BME280;32679;40.810;14.498;2023-03-22T08:53:31;100230.00;;;25.73;30.00
46946;BME280;32679;40.810;14.498;2023-03-22T08:56:02;100219.97;;;24.68;30.47
46946;BME280;32679;40.810;14.498;2023-03-22T08:58:30;100222.94;;;25.33;30.27
46946;BME280;32679;40.810;14.498;2023-03-22T09:00:59;100227.63;;;25.49;30.17
46946;BME280;32679;40.810;14.498;2023-03-22T09:03:27;100221.81;;;24.62;31.72
46946;BME280;32679;40.810;14.498;2023-03-22T09:05:53;100232.50;;;25.71;30.30
46946;BME280;32679;40.810;14.498;2023-03-22T09:08:21;100218.59;;;25.73;30.21
46946;BME280;32679;40.810;14.498;2023-03-22T09:10:50;100226.69;;;25.08;31.74
46946;BME280;32679;40.810;14.498;2023-03-22T09:13:19;100215.13;;;24.90;32.46
46946;BME280;32679;40.810;14.498;2023-03-22T09:15:52;100214.88;;;23.86;32.38
46946;BME280;32679;40.810;14.498;2023-03-22T09:18:20;100210.56;;;24.33;31.62
46946;BME280;32679;40.810;14.498;2023-03-22T09:20:48;100208.06;;;23.84;32.33
46946;BME280;32679;40.810;14.498;2023-03-22T09:23:14;100207.06;;;24.16;31.69
46946;BME280;32679;40.810;14.498;2023-03-22T09:25:43;100208.41;;;23.73;31.61
46946;BME280;32679;40.810;14.498;2023-03-22T09:28:09;100216.72;;;24.18;31.01
46946;BME280;32679;40.810;14.498;2023-03-22T09:30:35;100213.84;;;23.80;31.10
46946;BME280;32679;40.810;14.498;2023-03-22T09:33:01;100210.03;;;23.87;31.06
46946;BME280;32679;40.810;14.498;2023-03-22T09:35:31;100210.94;;;23.42;31.69
46946;BME280;32679;40.810;14.498;2023-03-22T09:38:01;100203.75;;;23.37;33.04
46946;BME280;32679;40.810;14.498;2023-03-22T09:40:29;100201.75;;;23.50;33.88
46946;BME280;32679;40.810;14.498;2023-03-22T09:43:01;100202.03;;;23.69;32.61
46946;BME280;32679;40.810;14.498;2023-03-22T09:45:42;100203.41;;;24.15;32.61
46946;BME280;32679;40.810;14.498;2023-03-22T09:48:16;100205.84;;;24.77;31.54
46946;BME280;32679;40.810;14.498;2023-03-22T09:50:48;100205.50;;;25.10;31.53
46946;BME280;32679;40.810;14.498;2023-03-22T09:53:16;100211.06;;;25.35;31.40
46946;BME280;32679;40.810;14.498;2023-03-22T09:56:28;100203.50;;;24.50;32.63
46946;BME280;32679;40.810;14.498;2023-03-22T09:58:54;100203.66;;;25.16;31.45
46946;BME280;32679;40.810;14.498;2023-03-22T10:06:49;100198.50;;;24.54;31.80
46946;BME280;32679;40.810;14.498;2023-03-22T10:11:59;100190.47;;;24.14;32.01
46946;BME280;32679;40.810;14.498;2023-03-22T10:14:40;100157.28;;;23.98;32.21
46946;BME280;32679;40.810;14.498;2023-03-22T10:17:13;100180.00;;;24.24;32.48
46946;BME280;32679;40.810;14.498;2023-03-22T10:19:52;100184.41;;;24.25;32.14
46946;BME280;32679;40.810;14.498;2023-03-22T10:22:25;100178.72;;;24.12;32.39
46946;BME280;32679;40.810;14.498;2023-03-22T10:24:56;100182.31;;;24.64;31.06
46946;BME280;32679;40.810;14.498;2023-03-22T10:27:27;100174.09;;;23.80;33.43
46946;BME280;32679;40.810;14.498;2023-03-22T10:30:05;100169.50;;;23.44;34.51
46946;BME280;32679;40.810;14.498;2023-03-22T10:35:12;100163.66;;;24.63;34.10
46946;BME280;32679;40.810;14.498;2023-03-22T10:37:42;100153.66;;;24.58;34.37
46946;BME280;32679;40.810;14.498;2023-03-22T10:40:25;100156.97;;;24.56;34.73
46946;BME280;32679;40.810;14.498;2023-03-22T10:43:06;100151.50;;;24.49;35.09
46946;BME280;32679;40.810;14.498;2023-03-22T10:45:36;100148.28;;;23.74;35.73
46946;BME280;32679;40.810;14.498;2023-03-22T10:48:29;100144.97;;;23.50;36.96
46946;BME280;32679;40.810;14.498;2023-03-22T10:50:57;100143.19;;;23.82;35.30
46946;BME280;32679;40.810;14.498;2023-03-22T10:53:39;100145.59;;;24.56;35.15
46946;BME280;32679;40.810;14.498;2023-03-22T10:56:16;100151.91;;;24.26;35.30
46946;BME280;32679;40.810;14.498;2023-03-22T10:58:45;100144.91;;;23.92;35.94
46946;BME280;32679;40.810;14.498;2023-03-22T11:01:12;100146.03;;;23.69;36.66
46946;BME280;32679;40.810;14.498;2023-03-22T11:03:41;100136.13;;;23.74;36.61
46946;BME280;32679;40.810;14.498;2023-03-22T11:06:26;100135.88;;;24.07;35.83
46946;BME280;32679;40.810;14.498;2023-03-22T11:08:58;100139.59;;;24.42;35.24
46946;BME280;32679;40.810;14.498;2023-03-22T11:11:25;100134.09;;;23.87;36.11
46946;BME280;32679;40.810;14.498;2023-03-22T11:14:07;100144.31;;;24.10;36.36
46946;BME280;32679;40.810;14.498;2023-03-22T11:17:13;100139.38;;;23.47;37.12
46946;BME280;32679;40.810;14.498;2023-03-22T11:19:56;100134.03;;;23.36;36.86
46946;BME280;32679;40.810;14.498;2023-03-22T11:22:38;100133.00;;;23.30;36.69
46946;BME280;32679;40.810;14.498;2023-03-22T11:25:23;100119.97;;;23.45;37.12
46946;BME280;32679;40.810;14.498;2023-03-22T11:30:35;100120.53;;;23.53;36.28
46946;BME280;32679;40.810;14.498;2023-03-22T11:35:35;100109.38;;;22.62;38.28
46946;BME280;32679;40.810;14.498;2023-03-22T11:38:14;100113.31;;;22.97;38.04
46946;BME280;32679;40.810;14.498;2023-03-22T11:40:51;100119.06;;;23.36;37.31
46946;BME280;32679;40.810;14.498;2023-03-22T11:43:35;100108.00;;;23.12;37.94
46946;BME280;32679;40.810;14.498;2023-03-22T11:46:02;100100.19;;;22.87;38.39
46946;BME280;32679;40.810;14.498;2023-03-22T11:48:30;100099.63;;;22.34;38.66
46946;BME280;32679;40.810;14.498;2023-03-22T11:51:30;100105.44;;;22.60;38.61
46946;BME280;32679;40.810;14.498;2023-03-22T11:56:40;100104.94;;;23.19;38.61
46946;BME280;32679;40.810;14.498;2023-03-22T11:59:14;100097.53;;;22.96;39.60
46946;BME280;32679;40.810;14.498;2023-03-22T12:01:49;100096.91;;;22.14;40.35
46946;BME280;32679;40.810;14.498;2023-03-22T12:04:19;100092.28;;;22.66;39.28
46946;BME280;32679;40.810;14.498;2023-03-22T12:06:51;100094.22;;;22.69;40.12
46946;BME280;32679;40.810;14.498;2023-03-22T12:12:01;100076.38;;;22.56;37.54
46946;BME280;32679;40.810;14.498;2023-03-22T12:14:36;100087.09;;;23.06;35.81
46946;BME280;32679;40.810;14.498;2023-03-22T12:17:22;100083.81;;;23.08;35.86
46946;BME280;32679;40.810;14.498;2023-03-22T12:19:59;100079.47;;;22.74;36.92
46946;BME280;32679;40.810;14.498;2023-03-22T12:22:30;100081.22;;;22.84;37.49
46946;BME280;32679;40.810;14.498;2023-03-22T12:24:59;100081.41;;;22.93;36.67
46946;BME280;32679;40.810;14.498;2023-03-22T12:27:31;100075.53;;;22.26;38.05
46946;BME280;32679;40.810;14.498;2023-03-22T12:30:00;100070.63;;;22.72;39.51
46946;BME280;32679;40.810;14.498;2023-03-22T12:32:42;100075.50;;;23.00;40.86
46946;BME280;32679;40.810;14.498;2023-03-22T12:35:24;100071.94;;;21.93;43.15
46946;BME280;32679;40.810;14.498;2023-03-22T12:37:54;100063.59;;;22.02;43.48
46946;BME280;32679;40.810;14.498;2023-03-22T12:40:27;100056.38;;;22.46;38.96
46946;BME280;32679;40.810;14.498;2023-03-22T12:45:44;100052.38;;;22.15;44.83
46946;BME280;32679;40.810;14.498;2023-03-22T12:48:26;100049.00;;;22.78;44.96
46946;BME280;32679;40.810;14.498;2023-03-22T12:51:07;100045.72;;;22.51;45.43
46946;BME280;32679;40.810;14.498;2023-03-22T12:53:37;100041.81;;;22.15;46.45
46946;BME280;32679;40.810;14.498;2023-03-22T12:56:16;100045.72;;;21.56;44.21
46946;BME280;32679;40.810;14.498;2023-03-22T12:58:49;100033.25;;;22.03;44.13
46946;BME280;32679;40.810;14.498;2023-03-22T13:01:21;100034.16;;;22.16;47.52
46946;BME280;32679;40.810;14.498;2023-03-22T13:03:53;100026.31;;;22.04;48.13
46946;BME280;32679;40.810;14.498;2023-03-22T13:07:13;100006.28;;;21.49;48.91
46946;BME280;32679;40.810;14.498;2023-03-22T13:09:35;100017.34;;;21.76;49.26
46946;BME280;32679;40.810;14.498;2023-03-22T13:20:19;100024.59;;;21.44;50.36
46946;BME280;32679;40.810;14.498;2023-03-22T13:30:51;100011.00;;;21.19;51.53
46946;BME280;32679;40.810;14.498;2023-03-22T13:33:30;100016.72;;;21.00;52.62
46946;BME280;32679;40.810;14.498;2023-03-22T13:36:25;100020.16;;;21.07;51.76
46946;BME280;32679;40.810;14.498;2023-03-22T13:39:08;99991.25;;;21.00;51.38
46946;BME280;32679;40.810;14.498;2023-03-22T13:41:35;100015.66;;;20.93;51.88
46946;BME280;32679;40.810;14.498;2023-03-22T13:44:02;100012.00;;;20.93;50.50
46946;BME280;32679;40.810;14.498;2023-03-22T13:46:48;100004.06;;;20.68;51.68
46946;BME280;32679;40.810;14.498;2023-03-22T13:52:00;100004.38;;;20.54;51.53
46946;BME280;32679;40.810;14.498;2023-03-22T13:54:41;100010.13;;;20.86;51.23
46946;BME280;32679;40.810;14.498;2023-03-22T13:57:38;100012.50;;;20.52;52.01
46946;BME280;32679;40.810;14.498;2023-03-22T14:03:00;100007.75;;;20.25;52.66
46946;BME280;32679;40.810;14.498;2023-03-22T14:05:31;100009.19;;;20.13;53.84
46946;BME280;32679;40.810;14.498;2023-03-22T14:08:02;99995.94;;;20.30;53.31
46946;BME280;32679;40.810;14.498;2023-03-22T14:10:45;100002.16;;;20.22;53.28
46946;BME280;32679;40.810;14.498;2023-03-22T14:13:33;100001.75;;;20.00;52.94
46946;BME280;32679;40.810;14.498;2023-03-22T14:16:30;100005.47;;;19.73;54.14
46946;BME280;32679;40.810;14.498;2023-03-22T14:18:59;100003.53;;;19.90;53.73
46946;BME280;32679;40.810;14.498;2023-03-22T14:21:33;100004.00;;;19.88;53.08
46946;BME280;32679;40.810;14.498;2023-03-22T14:23:59;99998.94;;;20.00;52.27
46946;BME280;32679;40.810;14.498;2023-03-22T14:26:37;99993.44;;;19.42;53.51
46946;BME280;32679;40.810;14.498;2023-03-22T14:29:12;99986.19;;;19.68;53.93